^^
Your Local Weather - Clay, NY Station Historical Data
 
Daily Summary for December 19, 2018 Units:  English    Metric   Both
« Previous Day
Next Day »
Daily Weekly Monthly Yearly Custom
  Current: High: Low: Average:
Temperature: 18.2 °F 23.9 °F 18.2 °F 20.7 °F
Dew Point: 15.5 °F 18 °F 14.8 °F 16.3 °F
Humidity: 89% 89% 78% 83%
Wind Speed: 0mph 0mph 0mph 0mph
Wind Gust: 0mph 0mph - -
WindCalm - -
Pressure: 30.11 in 30.12 in 30.10 in -
Precipitation: 0 in      
Historical Graphs
 
 
Tabular Data for December 19, 2018
Time Temperature Dew Point Pressure Wind Wind Speed Wind Gust Humidity Rainfall Rate (Hourly) solar
00:04 23.7 °F 17.8 °F 30.12 in Calm     78% 0 in 0.00 W/m2
00:08 23.6 °F 17.7 °F 30.12 in Calm     78% 0 in 0.00 W/m2
00:14 23.7 °F 17.8 °F 30.12 in Calm     78% 0 in 0.00 W/m2
00:18 23.8 °F 17.9 °F 30.11 in Calm     78% 0 in 0.00 W/m2
00:24 23.8 °F 17.9 °F 30.12 in Calm     78% 0 in 0.00 W/m2
00:28 23.9 °F 18 °F 30.12 in Calm     78% 0 in 0.00 W/m2
00:34 23.8 °F 17.9 °F 30.12 in Calm     78% 0 in 0.00 W/m2
00:38 23.7 °F 17.8 °F 30.11 in Calm     78% 0 in 0.00 W/m2
00:44 23.6 °F 17.7 °F 30.11 in Calm     78% 0 in 0.00 W/m2
00:48 23.4 °F 17.6 °F 30.11 in Calm     78% 0 in 0.00 W/m2
00:54 23 °F 17.2 °F 30.11 in Calm     78% 0 in 0.00 W/m2
00:58 22.6 °F 17.1 °F 30.11 in Calm     79% 0 in 0.00 W/m2
01:04 22.3 °F 17.1 °F 30.10 in Calm     80% 0 in 0.00 W/m2
01:08 21.9 °F 17 °F 30.11 in Calm     81% 0 in 0.00 W/m2
01:14 21.5 °F 16.6 °F 30.11 in Calm     81% 0 in 0.00 W/m2
01:18 21.3 °F 16.7 °F 30.11 in Calm     82% 0 in 0.00 W/m2
01:24 21 °F 16.4 °F 30.11 in Calm     82% 0 in 0.00 W/m2
01:28 20.8 °F 16.2 °F 30.11 in Calm     82% 0 in 0.00 W/m2
01:34 20.7 °F 16.4 °F 30.11 in Calm     83% 0 in 0.00 W/m2
01:38 20.5 °F 16.2 °F 30.11 in Calm     83% 0 in 0.00 W/m2
01:42 20.5 °F 16.4 °F 30.11 in Calm     84% 0 in 0.00 W/m2
01:48 20.3 °F 16.2 °F 30.11 in Calm     84% 0 in 0.00 W/m2
01:54 20 °F 15.9 °F 30.11 in Calm     84% 0 in 0.00 W/m2
01:58 19.8 °F 15.7 °F 30.11 in Calm     84% 0 in 0.00 W/m2
02:04 19.5 °F 15.7 °F 30.11 in Calm     85% 0 in 0.00 W/m2
02:08 19.2 °F 15.4 °F 30.11 in Calm     85% 0 in 0.00 W/m2
02:14 18.9 °F 15.1 °F 30.12 in Calm     85% 0 in 0.00 W/m2
02:18 18.6 °F 14.8 °F 30.12 in Calm     85% 0 in 0.00 W/m2
02:24 18.4 °F 14.9 °F 30.12 in Calm     86% 0 in 0.00 W/m2
02:28 18.4 °F 15.2 °F 30.12 in Calm     87% 0 in 0.00 W/m2
02:34 18.5 °F 15.5 °F 30.12 in Calm     88% 0 in 0.00 W/m2
02:38 18.5 °F 15.5 °F 30.12 in Calm     88% 0 in 0.00 W/m2
02:44 18.5 °F 15.5 °F 30.12 in Calm     88% 0 in 0.00 W/m2
02:48 18.5 °F 15.5 °F 30.12 in Calm     88% 0 in 0.00 W/m2
02:54 18.4 °F 15.4 °F 30.12 in Calm     88% 0 in 0.00 W/m2
02:58 18.3 °F 15.3 °F 30.12 in Calm     88% 0 in 0.00 W/m2
03:04 18.2 °F 15.2 °F 30.12 in Calm     88% 0 in 0.00 W/m2
03:08 18.2 °F 15.2 °F 30.11 in Calm     88% 0 in 0.00 W/m2
03:14 18.2 °F 15.2 °F 30.11 in Calm     88% 0 in 0.00 W/m2
03:18 18.2 °F 15.2 °F 30.11 in Calm     88% 0 in 0.00 W/m2
03:24 18.2 °F 15.5 °F 30.11 in Calm     89% 0 in 0.00 W/m2
Country Meadow, Clay, NY, USA
Compliments of Weather Underground - 2 mb